createdAt,value
2023-02-01T00:02:02.581Z,16.60
2023-02-01T00:04:30.380Z,18.10
2023-02-01T00:06:57.923Z,16.80
2023-02-01T00:09:25.450Z,15.30
2023-02-01T00:11:52.719Z,15.50
2023-02-01T00:14:20.203Z,16.00
2023-02-01T00:16:47.300Z,14.70
2023-02-01T00:19:15.052Z,15.30
2023-02-01T00:21:42.633Z,15.90
2023-02-01T00:24:10.554Z,15.10
2023-02-01T00:26:45.061Z,15.40
2023-02-01T00:29:19.726Z,15.60
2023-02-01T00:31:46.748Z,15.30
2023-02-01T00:34:15.503Z,14.20
2023-02-01T00:36:43.077Z,14.90
2023-02-01T00:39:10.323Z,14.80
2023-02-01T00:41:37.679Z,15.20
2023-02-01T00:44:04.752Z,14.10
2023-02-01T00:46:32.035Z,16.20
2023-02-01T00:48:59.278Z,17.50
2023-02-01T00:51:27.900Z,13.90
2023-02-01T00:53:56.112Z,14.10
2023-02-01T00:56:23.634Z,14.70
2023-02-01T00:58:51.221Z,13.60
2023-02-01T01:01:20.687Z,13.90
2023-02-01T01:03:51.106Z,17.60
2023-02-01T01:06:37.136Z,13.60
2023-02-01T01:09:06.064Z,14.00
2023-02-01T01:11:35.597Z,14.20
2023-02-01T01:14:02.720Z,13.90
2023-02-01T01:16:31.463Z,13.50
2023-02-01T01:18:59.111Z,13.90
2023-02-01T01:21:26.581Z,12.30
2023-02-01T01:23:53.655Z,12.60
2023-02-01T01:26:23.038Z,13.70
2023-02-01T01:28:50.122Z,13.00
2023-02-01T01:31:18.303Z,13.20
2023-02-01T01:33:47.764Z,12.20
2023-02-01T01:36:16.059Z,12.70
2023-02-01T01:38:43.287Z,12.20
2023-02-01T01:41:16.665Z,12.70
2023-02-01T01:43:58.293Z,13.60
2023-02-01T01:46:29.106Z,13.20
2023-02-01T01:49:12.884Z,12.10
2023-02-01T01:51:45.242Z,11.40
2023-02-01T01:54:17.724Z,11.60
2023-02-01T01:56:47.224Z,11.80
2023-02-01T01:59:14.335Z,11.80
2023-02-01T02:01:41.733Z,12.80
2023-02-01T02:04:11.541Z,11.70
2023-02-01T02:06:41.747Z,11.80
2023-02-01T02:09:08.724Z,12.90
2023-02-01T02:11:36.372Z,11.90
2023-02-01T02:14:03.877Z,12.10
2023-02-01T02:16:53.142Z,12.50
2023-02-01T02:19:26.278Z,13.10
2023-02-01T02:22:30.122Z,12.70
2023-02-01T02:25:04.395Z,11.60
2023-02-01T02:27:45.790Z,11.90
2023-02-01T02:30:30.968Z,13.10
2023-02-01T02:33:32.833Z,11.50
2023-02-01T02:36:24.790Z,11.60
2023-02-01T02:39:01.559Z,11.30
2023-02-01T02:42:06.746Z,11.40
2023-02-01T02:44:57.513Z,11.90
2023-02-01T02:47:52.279Z,12.80
2023-02-01T02:50:51.529Z,10.90
2023-02-01T02:53:44.504Z,11.30
2023-02-01T02:56:30.166Z,12.10
2023-02-01T02:59:15.737Z,12.10
2023-02-01T03:02:04.106Z,11.20
2023-02-01T03:04:31.709Z,11.20
2023-02-01T03:07:28.717Z,10.60
2023-02-01T03:09:55.936Z,10.50
2023-02-01T03:12:42.148Z,10.80
2023-02-01T03:15:10.980Z,11.30
2023-02-01T03:17:40.345Z,10.80
2023-02-01T03:20:08.641Z,10.40
2023-02-01T03:22:36.307Z,10.60
2023-02-01T03:25:06.298Z,10.80
2023-02-01T03:27:40.200Z,10.80
2023-02-01T03:30:22.849Z,11.30
2023-02-01T03:33:01.770Z,12.70
2023-02-01T03:35:38.640Z,12.70
2023-02-01T03:38:30.401Z,11.70
2023-02-01T03:41:24.566Z,11.50
2023-02-01T03:43:55.583Z,10.50
2023-02-01T03:46:48.592Z,10.50
2023-02-01T03:49:58.311Z,10.90
2023-02-01T03:52:43.616Z,11.40
2023-02-01T03:55:13.045Z,12.80
2023-02-01T03:57:51.582Z,11.90
2023-02-01T04:00:23.737Z,12.10
2023-02-01T04:02:51.351Z,11.20
2023-02-01T04:05:18.443Z,11.20
2023-02-01T04:08:05.769Z,12.20
2023-02-01T04:10:38.777Z,12.30
2023-02-01T04:13:07.243Z,11.80
2023-02-01T04:15:35.387Z,11.30
2023-02-01T04:18:02.455Z,10.40
2023-02-01T04:20:29.662Z,10.70
2023-02-01T04:22:58.580Z,11.20
2023-02-01T04:25:26.078Z,11.60
2023-02-01T04:27:52.991Z,11.40
2023-02-01T04:30:20.623Z,11.60
2023-02-01T04:32:47.819Z,11.10
2023-02-01T04:37:45.769Z,11.10
2023-02-01T04:40:13.047Z,11.80
2023-02-01T04:42:40.251Z,11.00
2023-02-01T04:45:09.357Z,11.80
2023-02-01T04:47:36.733Z,11.80
2023-02-01T04:50:04.256Z,12.40
2023-02-01T04:52:31.507Z,12.10
2023-02-01T04:54:59.770Z,11.90
2023-02-01T04:57:26.895Z,12.00
2023-02-01T04:59:54.255Z,12.30
2023-02-01T05:02:21.348Z,12.60
2023-02-01T05:04:48.566Z,11.80
2023-02-01T05:07:16.220Z,12.40
2023-02-01T05:09:43.366Z,12.80
2023-02-01T05:12:29.392Z,12.80
2023-02-01T05:14:57.818Z,12.00
2023-02-01T05:17:24.936Z,11.50
2023-02-01T05:19:51.944Z,11.50
2023-02-01T05:22:19.104Z,10.10
2023-02-01T05:24:46.316Z,11.20
2023-02-01T05:27:13.715Z,11.60
2023-02-01T05:29:41.172Z,11.60
2023-02-01T05:32:21.669Z,11.10
2023-02-01T05:34:50.085Z,10.80
2023-02-01T05:37:17.924Z,10.70
2023-02-01T05:39:45.269Z,9.80
2023-02-01T05:42:12.581Z,10.80
2023-02-01T05:44:39.590Z,9.70
2023-02-01T05:47:07.471Z,11.60
2023-02-01T05:49:34.426Z,11.90
2023-02-01T05:52:06.831Z,11.70
2023-02-01T05:54:34.928Z,11.20
2023-02-01T05:57:03.414Z,11.60
2023-02-01T05:59:30.785Z,11.90
2023-02-01T06:01:57.896Z,12.30
2023-02-01T06:04:25.291Z,11.70
2023-02-01T06:06:52.588Z,11.70
2023-02-01T06:09:19.760Z,10.50
2023-02-01T06:11:47.569Z,10.90
2023-02-01T06:14:14.730Z,11.90
2023-02-01T06:16:41.899Z,10.70
2023-02-01T06:19:09.350Z,14.50
2023-02-01T06:21:36.799Z,10.40
2023-02-01T06:24:04.409Z,10.70
2023-02-01T06:26:31.856Z,8.90
2023-02-01T06:28:59.330Z,10.10
2023-02-01T06:31:26.535Z,9.50
2023-02-01T06:33:54.115Z,12.00
2023-02-01T06:36:24.533Z,10.20
2023-02-01T06:38:51.546Z,10.10
2023-02-01T06:41:21.013Z,11.70
2023-02-01T06:43:48.733Z,12.30
2023-02-01T06:46:15.971Z,11.00
2023-02-01T06:48:43.013Z,11.50
2023-02-01T06:51:36.220Z,10.70
2023-02-01T06:54:03.260Z,10.30
2023-02-01T06:56:31.860Z,10.00
2023-02-01T06:58:58.945Z,11.80
2023-02-01T07:01:27.253Z,12.40
2023-02-01T07:03:54.458Z,11.50
2023-02-01T07:06:21.593Z,11.40
2023-02-01T07:08:50.019Z,10.90
2023-02-01T07:11:18.280Z,9.80
2023-02-01T07:13:45.691Z,10.50
2023-02-01T07:16:14.414Z,10.00
2023-02-01T07:18:41.483Z,10.30
2023-02-01T07:21:08.692Z,10.60
2023-02-01T07:23:36.071Z,9.80
2023-02-01T07:26:04.668Z,10.20
2023-02-01T07:28:33.126Z,10.90
2023-02-01T07:31:18.532Z,10.90
2023-02-01T07:33:46.685Z,10.20
2023-02-01T07:36:15.788Z,9.50
2023-02-01T07:38:43.053Z,9.90
2023-02-01T07:41:10.238Z,9.30
2023-02-01T07:43:37.499Z,9.10
2023-02-01T07:46:05.101Z,8.70
2023-02-01T07:48:34.117Z,9.10
2023-02-01T07:51:05.199Z,8.50
2023-02-01T07:53:33.331Z,11.80
2023-02-01T07:56:01.072Z,10.80
2023-02-01T07:58:28.278Z,11.20
2023-02-01T08:01:14.031Z,11.50
2023-02-01T08:03:41.163Z,11.10
2023-02-01T08:06:08.183Z,9.40
2023-02-01T08:08:35.609Z,10.30
2023-02-01T08:11:04.460Z,9.60
2023-02-01T08:13:31.617Z,9.50
2023-02-01T08:16:03.220Z,9.80
2023-02-01T08:18:30.858Z,9.90
2023-02-01T08:20:57.970Z,10.30
2023-02-01T08:23:25.128Z,9.50
2023-02-01T08:25:52.207Z,9.30
2023-02-01T08:28:19.545Z,8.90
2023-02-01T08:30:46.842Z,9.60
2023-02-01T08:33:14.180Z,8.90
2023-02-01T08:35:44.135Z,9.00
2023-02-01T08:38:11.439Z,9.40
2023-02-01T08:40:38.989Z,9.20
2023-02-01T08:43:07.433Z,10.00
2023-02-01T08:45:34.392Z,9.40
2023-02-01T08:48:03.899Z,9.80
2023-02-01T08:50:31.400Z,9.00
2023-02-01T08:52:59.861Z,9.10
2023-02-01T08:55:27.247Z,10.30
2023-02-01T08:57:54.630Z,8.70
2023-02-01T09:00:22.221Z,8.70
2023-02-01T09:02:49.357Z,9.30
2023-02-01T09:05:18.652Z,9.10
2023-02-01T09:07:45.816Z,9.30
2023-02-01T09:10:14.545Z,9.20
2023-02-01T09:12:42.984Z,9.50
2023-02-01T09:15:10.843Z,8.40
2023-02-01T09:17:39.155Z,9.00
2023-02-01T09:20:07.506Z,9.10
2023-02-01T09:22:34.600Z,9.20
2023-02-01T09:25:01.636Z,8.40
2023-02-01T09:27:29.243Z,8.60
2023-02-01T09:29:56.256Z,8.60
2023-02-01T09:32:23.673Z,7.40
2023-02-01T09:34:51.781Z,7.80
2023-02-01T09:37:19.790Z,8.90
2023-02-01T09:39:46.761Z,7.70
2023-02-01T09:42:32.365Z,8.60
2023-02-01T09:45:02.807Z,9.30
2023-02-01T09:47:30.417Z,9.40
2023-02-01T09:50:23.340Z,9.30
2023-02-01T09:52:56.594Z,9.70
2023-02-01T09:55:37.397Z,10.50
2023-02-01T09:58:25.473Z,9.10
2023-02-01T10:00:56.476Z,10.70
2023-02-01T10:03:24.961Z,10.00
2023-02-01T10:06:10.277Z,10.60
2023-02-01T10:08:52.467Z,10.20
2023-02-01T10:11:31.704Z,11.30
2023-02-01T10:14:13.266Z,10.00
2023-02-01T10:16:43.902Z,10.50
2023-02-01T10:19:22.959Z,10.10
2023-02-01T10:21:56.016Z,10.80
2023-02-01T10:24:25.961Z,11.80
2023-02-01T10:27:07.040Z,10.10
2023-02-01T10:29:37.362Z,10.60
2023-02-01T10:32:12.659Z,11.10
2023-02-01T10:34:40.018Z,9.50
2023-02-01T10:37:20.094Z,9.80
2023-02-01T10:39:49.271Z,9.30
2023-02-01T10:42:19.650Z,10.00
2023-02-01T10:44:48.499Z,9.60
2023-02-01T10:47:16.241Z,10.20
2023-02-01T10:49:49.164Z,9.50
2023-02-01T10:52:20.883Z,9.60
2023-02-01T10:54:47.815Z,9.90
2023-02-01T10:57:26.335Z,10.20
2023-02-01T10:59:53.528Z,10.20
2023-02-01T11:02:32.028Z,9.60
2023-02-01T11:05:12.670Z,9.00
2023-02-01T11:07:40.223Z,9.60
2023-02-01T11:10:10.754Z,9.70
2023-02-01T11:12:38.142Z,9.30
2023-02-01T11:15:12.378Z,9.20
2023-02-01T11:17:47.085Z,7.80
2023-02-01T11:20:19.264Z,8.90
2023-02-01T11:22:56.521Z,9.20
2023-02-01T11:25:24.166Z,9.30
2023-02-01T11:27:55.401Z,9.80
2023-02-01T11:30:26.284Z,10.00
2023-02-01T11:32:53.166Z,8.70
2023-02-01T11:35:21.215Z,8.50
2023-02-01T11:37:54.214Z,9.80
2023-02-01T11:40:28.759Z,9.10
2023-02-01T11:43:12.593Z,13.20
2023-02-01T11:45:39.956Z,15.00
2023-02-01T11:48:18.201Z,9.50
2023-02-01T11:51:12.974Z,11.10
2023-02-01T11:54:08.344Z,11.30
2023-02-01T11:57:07.213Z,9.40
2023-02-01T11:59:43.086Z,8.60
2023-02-01T12:02:22.080Z,7.00
2023-02-01T12:04:58.685Z,8.80
2023-02-01T12:07:33.522Z,8.40
2023-02-01T12:10:19.747Z,8.10
2023-02-01T12:12:57.226Z,8.70
2023-02-01T12:15:29.423Z,8.30
2023-02-01T12:18:25.480Z,8.00
2023-02-01T12:21:06.611Z,9.10
2023-02-01T12:23:51.589Z,8.70
2023-02-01T12:26:33.789Z,8.50
2023-02-01T12:29:23.320Z,7.90
2023-02-01T12:32:02.256Z,9.30
2023-02-01T12:34:48.244Z,7.10
2023-02-01T12:37:27.666Z,7.60
2023-02-01T12:40:00.583Z,8.00
2023-02-01T12:42:32.022Z,8.20
2023-02-01T12:45:24.539Z,9.30
2023-02-01T12:47:54.954Z,8.60
2023-02-01T12:50:28.960Z,8.50
2023-02-01T12:53:04.968Z,7.40
2023-02-01T12:55:37.764Z,8.20
2023-02-01T12:58:24.011Z,8.20
2023-02-01T13:00:53.263Z,8.50
2023-02-01T13:03:40.584Z,8.30
2023-02-01T13:06:14.551Z,7.50
2023-02-01T13:08:58.765Z,8.70
2023-02-01T13:11:31.488Z,7.80
2023-02-01T13:14:03.900Z,7.10
2023-02-01T13:16:33.620Z,7.50
2023-02-01T13:19:06.060Z,6.90
2023-02-01T13:21:35.952Z,7.80
2023-02-01T13:24:03.184Z,7.90
2023-02-01T13:26:30.298Z,8.10
2023-02-01T13:29:03.765Z,8.20
2023-02-01T13:31:30.907Z,8.20
2023-02-01T13:34:19.500Z,8.30
2023-02-01T13:37:08.540Z,9.10
2023-02-01T13:40:01.135Z,8.80
2023-02-01T13:42:30.183Z,9.50
2023-02-01T13:45:14.788Z,8.60
2023-02-01T13:47:43.857Z,8.60
2023-02-01T13:50:29.293Z,9.50
2023-02-01T13:52:59.110Z,8.60
2023-02-01T13:58:15.680Z,8.70
2023-02-01T14:00:46.001Z,8.40
2023-02-01T14:03:36.265Z,9.40
2023-02-01T14:06:04.088Z,9.70
2023-02-01T14:08:39.720Z,8.50
2023-02-01T14:11:06.774Z,7.40
2023-02-01T14:13:40.772Z,8.50
2023-02-01T14:16:18.115Z,8.60
2023-02-01T14:18:46.908Z,7.80
2023-02-01T14:21:23.009Z,8.00
2023-02-01T14:23:53.727Z,7.60
2023-02-01T14:26:39.416Z,8.70
2023-02-01T14:29:20.600Z,8.30
2023-02-01T14:31:53.738Z,8.50
2023-02-01T14:34:47.609Z,9.20
2023-02-01T14:37:17.839Z,8.40
2023-02-01T14:39:44.991Z,6.80
2023-02-01T14:42:15.330Z,7.00
2023-02-01T14:44:59.446Z,6.40
2023-02-01T14:47:28.871Z,6.40
2023-02-01T14:50:28.228Z,6.70
2023-02-01T14:53:11.115Z,6.60
2023-02-01T14:55:42.428Z,6.50
2023-02-01T14:58:33.278Z,7.40
2023-02-01T15:01:05.780Z,6.70
2023-02-01T15:03:39.370Z,7.20
2023-02-01T15:06:39.580Z,6.80
2023-02-01T15:09:13.155Z,7.90
2023-02-01T15:12:04.502Z,7.10
2023-02-01T15:14:34.059Z,7.40
2023-02-01T15:17:01.209Z,7.00
2023-02-01T15:19:30.926Z,6.70
2023-02-01T15:21:58.492Z,8.10
2023-02-01T15:24:26.230Z,6.80
2023-02-01T15:26:54.260Z,7.10
2023-02-01T15:29:28.013Z,6.70
2023-02-01T15:31:56.120Z,6.60
2023-02-01T15:34:24.716Z,7.60
2023-02-01T15:37:02.869Z,7.60
2023-02-01T15:39:31.373Z,7.50
2023-02-01T15:42:02.468Z,8.60
2023-02-01T15:46:59.508Z,7.50
2023-02-01T15:49:33.223Z,8.10
2023-02-01T15:52:01.323Z,8.00
2023-02-01T15:54:42.991Z,8.30
2023-02-01T15:57:10.693Z,7.80
2023-02-01T15:59:44.427Z,8.70
2023-02-01T16:02:39.426Z,8.40
2023-02-01T16:05:23.212Z,8.60
2023-02-01T16:07:57.415Z,8.30
2023-02-01T16:10:26.964Z,8.60
2023-02-01T16:12:59.057Z,8.60
2023-02-01T16:15:30.236Z,8.40
2023-02-01T16:17:57.384Z,8.80
2023-02-01T16:20:24.458Z,9.90
2023-02-01T16:22:51.753Z,9.40
2023-02-01T16:25:18.774Z,10.10
2023-02-01T16:27:46.119Z,10.20
2023-02-01T16:30:13.488Z,10.60
2023-02-01T16:32:40.698Z,10.30
2023-02-01T16:35:19.482Z,11.40
2023-02-01T16:37:46.879Z,10.80
2023-02-01T16:40:15.207Z,11.40
2023-02-01T16:42:42.503Z,12.50
2023-02-01T16:45:10.077Z,13.60
2023-02-01T16:47:37.893Z,13.00
2023-02-01T16:50:22.768Z,14.10
2023-02-01T16:52:51.434Z,14.30
2023-02-01T16:55:19.930Z,13.50
2023-02-01T16:57:48.963Z,14.20
2023-02-01T17:00:24.396Z,15.20
2023-02-01T17:02:53.644Z,15.50
2023-02-01T17:05:21.365Z,16.10
2023-02-01T17:07:48.865Z,16.10
2023-02-01T17:10:32.622Z,15.40
2023-02-01T17:13:00.735Z,15.40
2023-02-01T17:15:29.603Z,14.80
2023-02-01T17:18:02.195Z,13.90
2023-02-01T17:20:32.428Z,14.30
2023-02-01T17:23:00.175Z,15.20
2023-02-01T17:25:28.352Z,15.40
2023-02-01T17:27:58.313Z,16.00
2023-02-01T17:30:25.731Z,15.60
2023-02-01T17:32:53.112Z,15.70
2023-02-01T17:35:23.241Z,15.20
2023-02-01T17:37:50.701Z,14.90
2023-02-01T17:40:17.989Z,15.00
2023-02-01T17:42:45.290Z,15.10
2023-02-01T17:45:39.930Z,15.50
2023-02-01T17:48:07.424Z,16.00
2023-02-01T17:50:36.625Z,15.50
2023-02-01T17:53:05.468Z,15.80
2023-02-01T17:55:34.474Z,15.90
2023-02-01T17:58:01.614Z,15.30
2023-02-01T18:00:30.072Z,14.50
2023-02-01T18:02:57.647Z,15.20
2023-02-01T18:05:53.061Z,14.40
2023-02-01T18:08:23.779Z,16.10
2023-02-01T18:11:01.195Z,15.90
2023-02-01T18:13:28.876Z,15.90
2023-02-01T18:15:58.538Z,15.50
2023-02-01T18:18:25.798Z,14.80
2023-02-01T18:20:52.826Z,14.60
2023-02-01T18:23:22.014Z,14.90
2023-02-01T18:25:50.956Z,15.60
2023-02-01T18:28:18.704Z,16.40
2023-02-01T18:30:47.822Z,17.40
2023-02-01T18:33:16.673Z,17.50
2023-02-01T18:35:44.425Z,17.20
2023-02-01T18:38:11.574Z,16.50
2023-02-01T18:41:00.572Z,16.40
2023-02-01T18:43:27.657Z,17.10
2023-02-01T18:45:55.403Z,17.70
2023-02-01T18:48:22.612Z,18.50
2023-02-01T18:50:51.661Z,17.60
2023-02-01T18:53:19.766Z,17.40
2023-02-01T18:55:50.303Z,15.90
2023-02-01T18:58:17.834Z,16.10
2023-02-01T19:00:46.566Z,16.00
2023-02-01T19:03:14.314Z,16.40
2023-02-01T19:05:41.302Z,16.40
2023-02-01T19:08:11.341Z,15.30
2023-02-01T19:10:41.363Z,16.20
2023-02-01T19:13:12.714Z,16.80
2023-02-01T19:15:41.843Z,15.80
2023-02-01T19:18:09.242Z,14.90
2023-02-01T19:20:57.654Z,14.60
2023-02-01T19:23:26.312Z,14.10
2023-02-01T19:25:54.949Z,15.40
2023-02-01T19:28:30.571Z,14.70
2023-02-01T19:31:04.472Z,15.00
2023-02-01T19:33:32.087Z,15.50
2023-02-01T19:36:02.914Z,16.20
2023-02-01T19:38:31.283Z,14.80
2023-02-01T19:40:59.899Z,14.70
2023-02-01T19:43:27.712Z,13.90
2023-02-01T19:45:55.413Z,14.40
2023-02-01T19:48:23.170Z,15.00
2023-02-01T19:50:51.172Z,15.50
2023-02-01T19:53:19.100Z,15.00
2023-02-01T19:55:47.701Z,14.10
2023-02-01T19:58:36.792Z,14.00
2023-02-01T20:01:05.604Z,14.50
2023-02-01T20:03:33.184Z,14.10
2023-02-01T20:06:00.896Z,13.50
2023-02-01T20:08:28.268Z,13.80
2023-02-01T20:10:56.935Z,13.90
2023-02-01T20:13:24.690Z,14.40
2023-02-01T20:15:58.837Z,14.60
2023-02-01T20:18:26.865Z,15.40
2023-02-01T20:20:56.277Z,13.70
2023-02-01T20:23:23.774Z,13.30
2023-02-01T20:25:53.375Z,15.00
2023-02-01T20:28:21.096Z,13.60
2023-02-01T20:30:50.739Z,15.10
2023-02-01T20:33:20.290Z,14.80
2023-02-01T20:35:47.719Z,15.70
2023-02-01T20:38:17.648Z,14.20
2023-02-01T20:40:47.457Z,13.50
2023-02-01T20:43:14.823Z,14.00
2023-02-01T20:45:42.445Z,13.10
2023-02-01T20:48:10.697Z,12.40
2023-02-01T20:50:38.585Z,14.50
2023-02-01T20:53:06.095Z,14.60
2023-02-01T20:55:38.176Z,15.80
2023-02-01T20:58:07.130Z,14.70
2023-02-01T21:00:34.516Z,15.10
2023-02-01T21:03:02.595Z,15.20
2023-02-01T21:05:40.173Z,14.60
2023-02-01T21:08:12.284Z,13.20
2023-02-01T21:10:39.793Z,15.50
2023-02-01T21:13:07.914Z,12.60
2023-02-01T21:15:36.301Z,15.80
2023-02-01T21:18:04.576Z,14.90
2023-02-01T21:20:33.995Z,14.10
2023-02-01T21:23:01.410Z,14.00
2023-02-01T21:25:28.641Z,13.90
2023-02-01T21:27:56.177Z,13.90
2023-02-01T21:30:23.434Z,13.50
2023-02-01T21:32:51.950Z,15.60
2023-02-01T21:35:19.279Z,16.00
2023-02-01T21:37:47.088Z,14.70
2023-02-01T21:40:17.884Z,15.50
2023-02-01T21:42:58.043Z,15.40
2023-02-01T21:45:31.063Z,17.20
2023-02-01T21:48:02.148Z,15.70
2023-02-01T21:50:34.679Z,15.70
2023-02-01T21:53:03.275Z,15.20
2023-02-01T21:55:31.387Z,16.80
2023-02-01T21:57:58.374Z,15.80
2023-02-01T22:00:25.761Z,15.00
2023-02-01T22:02:53.495Z,15.30
2023-02-01T22:05:20.981Z,17.30
2023-02-01T22:07:49.208Z,15.10
2023-02-01T22:10:16.341Z,14.20
2023-02-01T22:13:03.155Z,12.80
2023-02-01T22:15:32.435Z,13.40
2023-02-01T22:17:59.557Z,12.60
2023-02-01T22:20:28.260Z,14.00
2023-02-01T22:22:56.223Z,13.00
2023-02-01T22:25:28.098Z,12.90
2023-02-01T22:28:30.900Z,14.60
2023-02-01T22:30:42.806Z,15.40
2023-02-01T22:33:15.430Z,13.40
2023-02-01T22:35:42.498Z,12.50
2023-02-01T22:38:10.436Z,12.90
2023-02-01T22:40:57.506Z,12.10
2023-02-01T22:43:25.479Z,12.50
2023-02-01T22:45:52.834Z,15.30
2023-02-01T22:48:20.653Z,13.00
2023-02-01T22:50:47.718Z,12.30
2023-02-01T22:53:15.304Z,13.30
2023-02-01T22:55:44.929Z,12.80
2023-02-01T22:58:12.479Z,13.10
2023-02-01T23:00:39.685Z,12.50
2023-02-01T23:03:08.392Z,12.50
2023-02-01T23:05:35.509Z,12.80
2023-02-01T23:08:05.182Z,12.80
2023-02-01T23:10:33.233Z,13.00
2023-02-01T23:13:00.489Z,13.50
2023-02-01T23:15:27.473Z,13.70
2023-02-01T23:17:54.631Z,14.20
2023-02-01T23:20:23.476Z,13.60
2023-02-01T23:22:50.643Z,11.80
2023-02-01T23:25:17.817Z,13.00
2023-02-01T23:27:48.267Z,11.80
2023-02-01T23:30:16.759Z,13.50
2023-02-01T23:32:44.315Z,12.40
2023-02-01T23:35:12.441Z,12.60
2023-02-01T23:37:40.369Z,11.60
2023-02-01T23:40:07.899Z,13.00
2023-02-01T23:42:35.342Z,13.40
2023-02-01T23:45:03.035Z,12.40
2023-02-01T23:47:30.096Z,12.80
2023-02-01T23:49:57.197Z,12.70
2023-02-01T23:52:25.976Z,12.60
2023-02-01T23:54:53.166Z,13.50
2023-02-01T23:57:21.568Z,13.20
2023-02-01T23:59:48.933Z,14.90
